Hlavní strana
METAR-TAF:

METAR-TAF

Letiště :

Letiště Nuuk

Nuuk, Grónsko

zeměpisná šířka: 64-10N, zeměpisná délka: 051-45W, výška: 80 m

Aktuální stav počasí

Zpráva byla vytvořena před 13 minutami, v 10:50 UTC
Jižní vítr 2 kt
Teplota -3°C
Vlhkost vzduchu 74%
Tlak 1026 hPa
Viditelnost 10 km a více
Zataženo ve výšce 2300 ft

METAR: BGGH 301050Z 18002KT 9999 OVC023 M03/M07 Q1026

Čas: 09:03 (11:03 UTC)

Předpověď počasí

Zpráva byla vytvořena před 2 hodinami a 7 minutami, v 08:56 UTC
Předpověď platná od 30 v 09 UTC do 30 v 18 UTC
Jihozápadní vítr 8 kt
Viditelnost 10 km a více
Oblačno až skoro zataženo ve výšce 2000 ft
Dočasný
od 30 v 09 UTC do 30 v 18 UTC
Viditelnost: 7000 m
Oblačno až skoro zataženo ve výšce 1200 ft
slabé sněžení

TAF: BGGH 300856Z 3009/3018 22008KT 9999 BKN020 TEMPO 3009/3018 7000 -SN BKN012

Stav a předpovědi počasí z více než 4 000 letišť (zprávy METAR a TAF).

Červené a žluté tečky na mapě představují dostupné meteorologické stanice.

Když kurzor umístíte na tečku, zobrazí se název stanice.

Pak kliknutím zobrazíte stav a předpověď počasí.

Chcete-li změnit mapu, kliknutím na zelené tlačítko se znaménkem +mapu přiblížíte, kliknutím na zelené tlačítko se znaménkem – mapu oddálíte a kliknutím na zelené šipky přejdete na sousední mapy.


METAR-TAF: